Lund Lth, Sweden

7:50 AM CEST on August 28, 2015 (GMT +0200)
N%uFFFDbbel%uFFFDv | | Change Station
CLOSE
Current Station
Personal Weather Station
Location: Sk�ne L�n, SK�NE L�N
Elevation: 115 ft
Nearby Weather Stations

Elev 115 ft 55.73 °N, 13.17 °E | Updated 12 minutes ago

Scattered Clouds
Scattered Clouds
58.5 °F
Feels Like 58.5 °F
N
1.0
Wind Variable Wind from SW
Gusts 5.0 mph

Today
High -- | Low -- °F
--% Chance of Precip.
Yesterday
High -- | Low -- °F
Precip. -- in
6:03 AM 8:12 PM
Waxing Gibbous, 96% visible
Pressure 29.83 in
Visibility 6.2 miles
Clouds Scattered Clouds 1500 ft
Dew Point 57 °F
Humidity 94%
Rainfall 0.02 in
Snow Depth Not available.
UV 0 out of 12
Pollen Not available.
Air Quality Not available.
Flu Activity Not available.
METAR ESMS 280520Z 26007KT 9999 SCT015 14/13 Q1010
Pressure 29.83 in
Visibility 6.2 miles
Clouds Scattered Clouds 1500 ft
Dew Point 57 °F
Humidity 94%
Rainfall 0.02 in
Snow Depth Not available.
UV 0 out of 12
Pollen Not available.
Air Quality Not available.
Flu Activity Not available.
METAR ESMS 280520Z 26007KT 9999 SCT015 14/13 Q1010

10-Day Weather Forecast

×

Almanac

Astronomy

Aug. 28, 2015 Rise Set
Actual Time
Civil Twilight
Nautical Twilight
Astronomical Twilight
Moon
Length of Visible Light
Length of Day
Tomorrow will be .
, % of the Moon is Illuminated

Today's Extremes

Country Highs Country Lows

Community

WunderPhotos

Upload Photos

1,850,341 photos uploaded!

WunderBlogs® & News

Nearby

Air Quality

  Air Quality AQ Index Pollutant
Not available.

Snow Depth

Station Depth Elevation

Earthquake Activity

City Distance Mag. Time & Date
Minimum magnitude displayed is 2.5.

Coastal Water Temperatures

Place Temperature

Stations

Nearby Weather Stations

Station Location Temp. Windchill Dew Point Humidity Wind Precip. Elev Updated Type